createdAt,value
2022-09-28T06:14:55.363Z,6.41
2022-09-28T06:24:55.412Z,6.58
2022-09-28T06:34:56.445Z,8.79
2022-09-28T06:44:55.412Z,8.64
2022-09-28T06:54:55.405Z,9.49
2022-09-28T07:04:55.432Z,8.27
2022-09-28T07:14:55.633Z,7.56
2022-09-28T07:24:55.508Z,8.96
2022-09-28T07:34:58.797Z,9.45
2022-09-28T07:44:55.454Z,8.18
2022-09-28T07:54:55.408Z,7.57
2022-09-28T08:04:55.465Z,7.85
2022-09-28T08:14:55.440Z,7.04
2022-09-28T08:24:55.514Z,8.26
2022-09-28T08:34:55.533Z,8.51
2022-09-28T08:44:55.509Z,9.64
2022-09-28T08:54:55.526Z,10.37
2022-09-28T09:04:55.350Z,9.32
2022-09-28T09:14:55.513Z,10.19
2022-09-28T09:24:55.419Z,10.43
2022-09-28T09:34:55.717Z,10.93
2022-09-28T09:44:55.680Z,10.07
2022-09-28T09:54:55.691Z,10.01
2022-09-28T10:04:55.726Z,8.53
2022-09-28T10:14:55.624Z,8.06
2022-09-28T10:24:55.657Z,7.33
2022-09-28T10:34:55.903Z,3.46
2022-09-28T10:44:55.643Z,4.82
2022-09-28T10:54:55.825Z,7.42
2022-09-28T11:04:55.600Z,6.58
2022-09-28T11:14:55.709Z,7.00
2022-09-28T11:24:55.722Z,7.23
2022-09-28T11:34:59.617Z,7.30
2022-09-28T11:44:55.637Z,5.40
2022-09-28T11:54:55.757Z,5.68
2022-09-28T12:04:55.706Z,6.28
2022-09-28T12:14:55.647Z,6.01
2022-09-28T12:24:55.692Z,7.76
2022-09-28T12:34:55.616Z,5.01
2022-09-28T12:44:59.290Z,5.07
2022-09-28T12:54:55.766Z,4.62
2022-09-28T13:04:55.645Z,7.26
2022-09-28T13:14:55.784Z,9.92
2022-09-28T13:24:55.795Z,10.16
2022-09-28T13:34:55.601Z,9.87
2022-09-28T13:44:56.032Z,11.22
2022-09-28T13:54:55.723Z,8.40
2022-09-28T14:04:56.887Z,4.07
2022-09-28T14:14:55.821Z,4.90
2022-09-28T14:24:55.916Z,4.41
2022-09-28T14:34:55.930Z,3.02
2022-09-28T14:44:55.743Z,3.00
2022-09-28T14:54:55.750Z,2.57
2022-09-28T15:04:55.995Z,3.24
2022-09-28T15:14:59.284Z,3.39
2022-09-28T15:24:59.978Z,1.80
2022-09-28T15:34:55.978Z,4.04
2022-09-28T15:44:55.794Z,3.71
2022-09-28T15:54:55.848Z,2.25
2022-09-28T16:04:55.857Z,0.64
2022-09-28T16:14:55.797Z,0.64
2022-09-28T16:24:55.933Z,2.20
2022-09-28T16:34:55.802Z,0.92
2022-09-28T16:44:55.852Z,0.03
2022-09-28T16:54:55.809Z,0.07
2022-09-28T17:04:55.759Z,0.22
2022-09-28T17:14:55.845Z,1.56
2022-09-28T17:24:55.833Z,0.00
2022-09-28T17:35:12.815Z,0.00
2022-09-28T17:44:55.820Z,0.79
2022-09-28T17:54:55.830Z,2.63
2022-09-28T18:04:55.993Z,2.58
2022-09-28T18:14:55.894Z,4.27
2022-09-28T18:24:55.937Z,2.81
2022-09-28T18:34:55.970Z,0.00
2022-09-28T18:44:56.283Z,1.00
2022-09-28T18:54:56.292Z,3.06
2022-09-28T19:04:56.443Z,4.95
2022-09-28T19:14:56.510Z,5.13
